This is the latest recevied weather packets stored in our database for station/object OE5XFR. If no packets are shown the sender has not sent any weather packets the latest 1 day(s).
| Time | Temp. | Humidity | Pressure | Rain* | Wind** | Luminosity | Snow |
|---|---|---|---|---|---|---|---|
| 1778054954 | 15.56° C | 59% | 1009 hPa | 0 mm | - | - | - |
| 1778054236 | 15° C | 62% | 1009 hPa | 0 mm | - | - | - |
| 1778053516 | 14.44° C | 65% | 1009 hPa | 0 mm | - | - | - |
| 1778052796 | 13.89° C | 70% | 1009 hPa | 0 mm | - | - | - |
| 1778052076 | 13.33° C | 76% | 1009 hPa | 0 mm | - | - | - |
| 1778051356 | 12.78° C | 88% | 1009 hPa | 0 mm | - | - | - |
| 1778050636 | 12.22° C | 90% | 1009 hPa | 0 mm | - | - | - |
| 1778049916 | 12.22° C | 90% | 1009 hPa | 0 mm | - | - | - |
| 1778049196 | 11.67° C | 93% | 1009 hPa | 0 mm | - | - | - |
| 1778046316 | 9.44° C | 94% | 1010 hPa | 0 mm | - | - | - |
| 1778044876 | 9.44° C | 94% | 1009 hPa | 0 mm | - | - | - |
| 1778041996 | 9.44° C | 94% | 1010 hPa | 0 mm | - | - | - |
| 1778041275 | 9.44° C | 94% | 1010 hPa | 0 mm | - | - | - |
| 1778040556 | 9.44° C | 93% | 1010 hPa | 0 mm | - | - | - |
| 1778039836 | 9.44° C | 93% | 1010 hPa | 0 mm | - | - | - |
| 1778039116 | 9.44° C | 93% | 1010 hPa | 0 mm | - | - | - |
| 1778038395 | 10° C | 93% | 1010 hPa | 0 mm | - | - | - |
| 1778037675 | 10.56° C | 92% | 1010 hPa | 0 mm | - | - | - |
| 1778036956 | 10.56° C | 92% | 1010 hPa | 0 mm | - | - | - |
| 1778036236 | 11.11° C | 91% | 1010 hPa | 0 mm | - | - | - |
| 1778035515 | 11.11° C | 91% | 1010 hPa | 0 mm | - | - | - |
| 1778034075 | 11.67° C | 89% | 1010 hPa | 0 mm | - | - | - |
| 1778032635 | 12.22° C | 83% | 1010 hPa | 0 mm | - | - | - |
| 1778031915 | 12.22° C | 83% | 1010 hPa | 0 mm | - | - | - |
| 1778031195 | 12.22° C | 82% | 1010 hPa | 0 mm | - | - | - |
* Rain latest hour (hover to see other rain measurements)
** Current wind speed in m/s (hover to see current wind gust speed)